createdAt,value
2017-07-02T00:00:47.343Z,1003.7
2017-07-02T00:01:49.410Z,1003.7
2017-07-02T00:02:51.491Z,1003.7
2017-07-02T00:03:53.879Z,1003.7
2017-07-02T00:04:55.955Z,1003.7
2017-07-02T00:05:58.371Z,1003.7
2017-07-02T00:07:00.423Z,1003.7
2017-07-02T00:08:02.493Z,1003.7
2017-07-02T00:09:04.562Z,1003.7
2017-07-02T00:10:06.976Z,1003.7
2017-07-02T00:11:09.039Z,1003.7
2017-07-02T00:12:11.084Z,1003.8
2017-07-02T00:13:13.168Z,1003.8
2017-07-02T00:14:15.227Z,1003.8
2017-07-02T00:15:17.297Z,1003.8
2017-07-02T00:16:19.371Z,1003.7
2017-07-02T00:17:21.437Z,1003.7
2017-07-02T00:18:23.513Z,1003.8
2017-07-02T00:19:25.582Z,1003.8
2017-07-02T00:20:27.643Z,1003.8
2017-07-02T00:21:30.048Z,1003.7
2017-07-02T00:22:32.115Z,1003.8
2017-07-02T00:23:34.201Z,1003.7
2017-07-02T00:24:36.280Z,1003.7
2017-07-02T00:25:38.332Z,1003.8
2017-07-02T00:26:40.404Z,1003.8
2017-07-02T00:27:42.448Z,1003.8
2017-07-02T00:28:44.855Z,1003.8
2017-07-02T00:29:47.254Z,1003.8
2017-07-02T00:30:49.318Z,1003.8
2017-07-02T00:31:51.371Z,1003.8
2017-07-02T00:32:53.440Z,1003.9
2017-07-02T00:33:55.495Z,1003.9
2017-07-02T00:34:58.262Z,1003.9
2017-07-02T00:36:00.313Z,1003.9
2017-07-02T00:37:02.434Z,1003.9
2017-07-02T00:38:04.494Z,1004
2017-07-02T00:39:06.552Z,1004
2017-07-02T00:40:08.950Z,1004
2017-07-02T00:41:11.018Z,1004
2017-07-02T00:42:13.092Z,1003.9
2017-07-02T00:43:15.162Z,1004
2017-07-02T00:44:17.556Z,1004
2017-07-02T00:45:19.634Z,1004.1
2017-07-02T00:46:22.035Z,1004.1
2017-07-02T00:47:24.095Z,1004.1
2017-07-02T00:48:26.163Z,1004
2017-07-02T00:49:28.235Z,1004
2017-07-02T00:50:30.298Z,1004.1
2017-07-02T00:51:32.360Z,1004.1
2017-07-02T00:52:34.780Z,1004.1
2017-07-02T00:53:37.201Z,1004.1
2017-07-02T00:54:39.256Z,1004.1
2017-07-02T00:55:41.314Z,1004.1
2017-07-02T00:56:43.702Z,1004.1
2017-07-02T00:57:45.760Z,1004
2017-07-02T00:58:47.836Z,1004.2
2017-07-02T00:59:49.894Z,1004.2
2017-07-02T01:00:51.967Z,1004.1
2017-07-02T01:01:54.373Z,1004.2
2017-07-02T01:02:56.446Z,1004.2
2017-07-02T01:03:58.506Z,1004.2
2017-07-02T01:05:00.560Z,1004.2
2017-07-02T01:06:02.977Z,1004.2
2017-07-02T01:07:05.040Z,1004.2
2017-07-02T01:08:07.075Z,1004.2
2017-07-02T01:09:09.169Z,1004.2
2017-07-02T01:10:11.235Z,1004.2
2017-07-02T01:11:13.335Z,1004.2
2017-07-02T01:12:15.409Z,1004.2
2017-07-02T01:13:17.825Z,1004.3
2017-07-02T01:14:19.884Z,1004.3
2017-07-02T01:15:21.932Z,1004.2
2017-07-02T01:16:23.982Z,1004.3
2017-07-02T01:17:26.073Z,1004.3
2017-07-02T01:18:28.456Z,1004.4
2017-07-02T01:19:30.506Z,1004.4
2017-07-02T01:20:32.572Z,1004.3
2017-07-02T01:21:34.639Z,1004.4
2017-07-02T01:22:36.746Z,1004.4
2017-07-02T01:23:38.803Z,1004.3
2017-07-02T01:24:40.883Z,1004.3
2017-07-02T01:25:42.940Z,1004.4
2017-07-02T01:26:44.979Z,1004.4
2017-07-02T01:27:47.043Z,1004.4
2017-07-02T01:28:49.123Z,1004.4
2017-07-02T01:29:51.195Z,1004.3
2017-07-02T01:30:53.260Z,1004.4
2017-07-02T01:31:55.324Z,1004.4
2017-07-02T01:32:57.376Z,1004.5
2017-07-02T01:33:59.430Z,1004.4
2017-07-02T01:35:01.478Z,1004.5
2017-07-02T01:36:03.881Z,1004.4
2017-07-02T01:37:05.931Z,1004.5
2017-07-02T01:38:07.992Z,1004.4
2017-07-02T01:39:10.420Z,1004.4
2017-07-02T01:40:12.480Z,1004.4
2017-07-02T01:41:14.564Z,1004.5
2017-07-02T01:42:16.630Z,1004.4
2017-07-02T01:43:18.691Z,1004.4
2017-07-02T01:44:21.443Z,1004.4
2017-07-02T01:45:23.849Z,1004.5
2017-07-02T01:46:25.904Z,1004.5
2017-07-02T01:47:27.964Z,1004.5
2017-07-02T01:48:30.373Z,1004.5
2017-07-02T01:49:32.792Z,1004.5
2017-07-02T01:50:35.531Z,1004.5
2017-07-02T01:51:37.600Z,1004.5
2017-07-02T01:52:39.696Z,1004.5
2017-07-02T01:53:41.756Z,1004.5
2017-07-02T01:54:43.811Z,1004.5
2017-07-02T01:55:45.884Z,1004.6
2017-07-02T01:56:48.278Z,1004.5
2017-07-02T01:57:50.327Z,1004.5
2017-07-02T01:58:52.418Z,1004.5
2017-07-02T01:59:54.475Z,1004.5
2017-07-02T02:00:56.548Z,1004.6
2017-07-02T02:01:58.613Z,1004.6
2017-07-02T02:03:00.669Z,1004.5
2017-07-02T02:04:02.746Z,1004.5
2017-07-02T02:05:04.778Z,1004.6
2017-07-02T02:06:06.844Z,1004.6
2017-07-02T02:07:08.913Z,1004.6
2017-07-02T02:08:10.973Z,1004.5
2017-07-02T02:09:13.048Z,1004.6
2017-07-02T02:10:15.162Z,1004.5
2017-07-02T02:11:17.222Z,1004.7
2017-07-02T02:12:19.272Z,1004.5
2017-07-02T02:13:21.332Z,1004.6
2017-07-02T02:14:23.395Z,1004.6
2017-07-02T02:15:25.452Z,1004.6
2017-07-02T02:16:27.528Z,1004.6
2017-07-02T02:17:29.583Z,1004.7
2017-07-02T02:18:31.641Z,1004.6
2017-07-02T02:19:33.714Z,1004.6
2017-07-02T02:20:35.776Z,1004.7
2017-07-02T02:21:38.187Z,1004.7
2017-07-02T02:22:40.265Z,1004.7
2017-07-02T02:23:42.320Z,1004.7
2017-07-02T02:24:44.387Z,1004.6
2017-07-02T02:25:46.772Z,1004.6
2017-07-02T02:26:49.171Z,1004.6
2017-07-02T02:27:51.226Z,1004.6
2017-07-02T02:28:53.286Z,1004.7
2017-07-02T02:29:55.363Z,1004.7
2017-07-02T02:30:57.442Z,1004.7
2017-07-02T02:31:59.495Z,1004.7
2017-07-02T02:33:01.935Z,1004.7
2017-07-02T02:34:03.988Z,1004.7
2017-07-02T02:35:06.052Z,1004.7
2017-07-02T02:36:08.132Z,1004.7
2017-07-02T02:37:10.531Z,1004.7
2017-07-02T02:38:12.575Z,1004.7
2017-07-02T02:39:14.637Z,1004.7
2017-07-02T02:40:16.687Z,1004.7
2017-07-02T02:41:18.753Z,1004.8
2017-07-02T02:42:21.109Z,1004.7
2017-07-02T02:43:23.170Z,1004.8
2017-07-02T02:44:25.592Z,1004.8
2017-07-02T02:45:27.631Z,1004.8
2017-07-02T02:46:29.698Z,1004.8
2017-07-02T02:47:32.140Z,1004.8
2017-07-02T02:48:34.203Z,1004.9
2017-07-02T02:49:36.251Z,1004.9
2017-07-02T02:50:38.665Z,1004.8
2017-07-02T02:51:40.731Z,1004.8
2017-07-02T02:52:42.784Z,1004.9
2017-07-02T02:53:44.850Z,1004.8
2017-07-02T02:54:46.911Z,1004.8
2017-07-02T02:55:48.968Z,1004.8
2017-07-02T02:56:51.051Z,1004.8
2017-07-02T02:57:53.092Z,1004.8
2017-07-02T02:58:55.160Z,1004.8
2017-07-02T02:59:57.897Z,1004.8
2017-07-02T03:00:59.956Z,1004.9
2017-07-02T03:02:02.006Z,1004.9
2017-07-02T03:03:04.075Z,1005
2017-07-02T03:04:06.132Z,1004.9
2017-07-02T03:05:08.560Z,1004.9
2017-07-02T03:06:10.947Z,1004.9
2017-07-02T03:07:13.704Z,1005
2017-07-02T03:08:15.757Z,1005
2017-07-02T03:09:17.815Z,1005
2017-07-02T03:10:19.874Z,1005
2017-07-02T03:11:21.944Z,1005
2017-07-02T03:12:23.996Z,1005
2017-07-02T03:13:26.063Z,1005
2017-07-02T03:14:28.129Z,1005
2017-07-02T03:15:30.209Z,1005
2017-07-02T03:16:32.279Z,1005
2017-07-02T03:17:34.378Z,1005
2017-07-02T03:18:36.503Z,1005
2017-07-02T03:19:38.944Z,1005
2017-07-02T03:20:40.983Z,1005
2017-07-02T03:21:43.043Z,1005
2017-07-02T03:22:45.100Z,1005.1
2017-07-02T03:23:47.158Z,1005.1
2017-07-02T03:24:49.223Z,1005.1
2017-07-02T03:25:51.278Z,1005.1
2017-07-02T03:26:53.342Z,1005
2017-07-02T03:27:55.754Z,1005.1
2017-07-02T03:28:58.165Z,1005.1
2017-07-02T03:30:00.202Z,1005.1
2017-07-02T03:31:02.272Z,1005.1
2017-07-02T03:32:04.349Z,1005.1
2017-07-02T03:33:06.407Z,1005.1
2017-07-02T03:34:08.471Z,1005.1
2017-07-02T03:35:10.537Z,1005.1
2017-07-02T03:36:12.623Z,1005.1
2017-07-02T03:37:14.669Z,1005.1
2017-07-02T03:38:16.735Z,1005.1
2017-07-02T03:39:18.817Z,1005.1
2017-07-02T03:40:21.224Z,1005.2
2017-07-02T03:41:23.279Z,1005.1
2017-07-02T03:42:25.337Z,1005.2
2017-07-02T03:43:27.403Z,1005.1
2017-07-02T03:44:29.462Z,1005.2
2017-07-02T03:45:31.906Z,1005.2
2017-07-02T03:46:33.980Z,1005.2
2017-07-02T03:47:36.041Z,1005.2
2017-07-02T03:48:38.101Z,1005.2
2017-07-02T03:49:40.165Z,1005.3
2017-07-02T03:50:42.557Z,1005.2
2017-07-02T03:51:44.633Z,1005.2
2017-07-02T03:52:46.697Z,1005.3
2017-07-02T03:53:48.759Z,1005.3
2017-07-02T03:54:50.826Z,1005.2
2017-07-02T03:55:52.888Z,1005.3
2017-07-02T03:56:54.953Z,1005.3
2017-07-02T03:57:57.015Z,1005.3
2017-07-02T03:58:59.792Z,1005.3
2017-07-02T04:00:01.858Z,1005.4
2017-07-02T04:01:03.900Z,1005.4
2017-07-02T04:02:06.295Z,1005.3
2017-07-02T04:03:08.363Z,1005.4
2017-07-02T04:04:10.759Z,1005.5
2017-07-02T04:05:12.827Z,1005.4
2017-07-02T04:06:14.897Z,1005.4
2017-07-02T04:07:16.964Z,1005.4
2017-07-02T04:08:19.029Z,1005.4
2017-07-02T04:09:21.086Z,1005.4
2017-07-02T04:10:23.161Z,1005.4
2017-07-02T04:11:25.222Z,1005.4
2017-07-02T04:12:27.276Z,1005.4
2017-07-02T04:13:29.347Z,1005.4
2017-07-02T04:14:31.403Z,1005.4
2017-07-02T04:15:33.464Z,1005.5
2017-07-02T04:16:35.529Z,1005.4
2017-07-02T04:17:37.603Z,1005.4
2017-07-02T04:18:39.675Z,1005.4
2017-07-02T04:19:41.722Z,1005.4
2017-07-02T04:20:43.789Z,1005.5
2017-07-02T04:21:45.857Z,1005.5
2017-07-02T04:22:48.265Z,1005.5
2017-07-02T04:23:50.325Z,1005.5
2017-07-02T04:24:52.414Z,1005.5
2017-07-02T04:25:54.470Z,1005.5
2017-07-02T04:26:56.575Z,1005.5
2017-07-02T04:27:58.635Z,1005.5
2017-07-02T04:29:00.703Z,1005.5
2017-07-02T04:30:03.125Z,1005.5
2017-07-02T04:31:05.303Z,1005.6
2017-07-02T04:32:07.392Z,1005.5
2017-07-02T04:33:09.855Z,1005.5
2017-07-02T04:34:11.914Z,1005.5
2017-07-02T04:35:13.986Z,1005.5
2017-07-02T04:36:16.049Z,1005.5
2017-07-02T04:37:18.483Z,1005.5
2017-07-02T04:38:21.258Z,1005.6
2017-07-02T04:39:23.687Z,1005.5
2017-07-02T04:40:25.798Z,1005.5
2017-07-02T04:41:27.884Z,1005.5
2017-07-02T04:42:30.290Z,1005.5
2017-07-02T04:43:32.384Z,1005.5
2017-07-02T04:44:34.446Z,1005.6
2017-07-02T04:45:36.558Z,1005.5
2017-07-02T04:46:38.983Z,1005.5
2017-07-02T04:47:41.077Z,1005.5
2017-07-02T04:48:43.157Z,1005.5
2017-07-02T04:49:45.556Z,1005.5
2017-07-02T04:50:47.644Z,1005.5
2017-07-02T04:51:49.692Z,1005.5
2017-07-02T04:52:52.112Z,1005.5
2017-07-02T04:53:54.204Z,1005.5
2017-07-02T04:54:56.302Z,1005.5
2017-07-02T04:55:58.389Z,1005.5
2017-07-02T04:57:00.803Z,1005.5
2017-07-02T04:58:02.871Z,1005.5
2017-07-02T04:59:04.968Z,1005.6
2017-07-02T05:00:07.062Z,1005.5
2017-07-02T05:01:09.148Z,1005.6
2017-07-02T05:02:11.549Z,1005.5
2017-07-02T05:03:13.674Z,1005.6
2017-07-02T05:04:15.732Z,1005.5
2017-07-02T05:05:18.193Z,1005.5
2017-07-02T05:06:20.325Z,1005.6
2017-07-02T05:07:22.362Z,1005.5
2017-07-02T05:08:24.483Z,1005.6
2017-07-02T05:09:26.557Z,1005.6
2017-07-02T05:10:28.613Z,1005.6
2017-07-02T05:11:30.683Z,1005.6
2017-07-02T05:12:32.750Z,1005.6
2017-07-02T05:13:34.828Z,1005.6
2017-07-02T05:14:36.888Z,1005.6
2017-07-02T05:15:38.958Z,1005.6
2017-07-02T05:16:41.047Z,1005.6
2017-07-02T05:17:43.114Z,1005.6
2017-07-02T05:18:45.239Z,1005.7
2017-07-02T05:19:47.677Z,1005.7
2017-07-02T05:20:49.813Z,1005.7
2017-07-02T05:21:51.886Z,1005.6
2017-07-02T05:22:54.005Z,1005.7
2017-07-02T05:23:56.087Z,1005.7
2017-07-02T05:24:58.180Z,1005.7
2017-07-02T05:26:00.324Z,1005.8
2017-07-02T05:27:02.397Z,1005.8
2017-07-02T05:28:04.451Z,1005.8
2017-07-02T05:29:06.513Z,1005.8
2017-07-02T05:30:08.915Z,1005.8
2017-07-02T05:31:11.018Z,1005.8
2017-07-02T05:32:13.181Z,1005.8
2017-07-02T05:33:15.264Z,1005.8
2017-07-02T05:34:17.327Z,1005.9
2017-07-02T05:35:19.388Z,1005.8
2017-07-02T05:36:21.460Z,1005.9
2017-07-02T05:37:23.609Z,1005.8
2017-07-02T05:38:25.677Z,1005.9
2017-07-02T05:39:27.739Z,1005.9
2017-07-02T05:40:29.883Z,1005.8
2017-07-02T05:41:32.288Z,1005.9
2017-07-02T05:42:34.371Z,1005.9
2017-07-02T05:43:36.473Z,1005.9
2017-07-02T05:44:38.544Z,1005.8
2017-07-02T05:45:40.952Z,1005.9
2017-07-02T05:46:43.012Z,1005.9
2017-07-02T05:47:45.081Z,1005.9
2017-07-02T05:48:47.154Z,1005.9
2017-07-02T05:49:49.211Z,1005.9
2017-07-02T05:50:51.639Z,1005.8
2017-07-02T05:51:53.783Z,1005.9
2017-07-02T05:52:55.851Z,1006
2017-07-02T05:53:57.922Z,1005.9
2017-07-02T05:55:00.029Z,1006
2017-07-02T05:56:02.456Z,1006
2017-07-02T05:57:04.512Z,1006
2017-07-02T05:58:06.586Z,1006
2017-07-02T05:59:08.638Z,1006
2017-07-02T06:00:10.724Z,1006
2017-07-02T06:01:12.805Z,1006
2017-07-02T06:02:14.917Z,1006
2017-07-02T06:03:16.983Z,1006
2017-07-02T06:04:19.045Z,1006
2017-07-02T06:05:21.448Z,1006
2017-07-02T06:06:24.213Z,1006
2017-07-02T06:07:26.263Z,1006
2017-07-02T06:08:28.348Z,1006
2017-07-02T06:09:30.408Z,1006
2017-07-02T06:10:32.476Z,1006
2017-07-02T06:11:34.547Z,1006.1
2017-07-02T06:12:36.618Z,1006
2017-07-02T06:13:38.691Z,1006.1
2017-07-02T06:14:41.125Z,1006
2017-07-02T06:15:43.505Z,1006.1
2017-07-02T06:16:45.582Z,1006.1
2017-07-02T06:17:47.665Z,1006.1
2017-07-02T06:18:49.733Z,1006
2017-07-02T06:19:51.810Z,1006.1
2017-07-02T06:20:53.907Z,1006.1
2017-07-02T06:21:56.309Z,1006.2
2017-07-02T06:22:58.373Z,1006.2
2017-07-02T06:24:00.436Z,1006.1
2017-07-02T06:25:02.496Z,1006.1
2017-07-02T06:26:04.560Z,1006.2
2017-07-02T06:27:06.641Z,1006.1
2017-07-02T06:28:09.435Z,1006.1
2017-07-02T06:29:11.523Z,1006.1
2017-07-02T06:30:13.580Z,1006.1
2017-07-02T06:31:15.663Z,1006.1
2017-07-02T06:32:17.736Z,1006.1
2017-07-02T06:33:19.835Z,1006.1
2017-07-02T06:34:21.920Z,1006.1
2017-07-02T06:35:23.990Z,1006.1
2017-07-02T06:36:26.054Z,1006.1
2017-07-02T06:37:28.142Z,1006.1
2017-07-02T06:38:30.215Z,1006.1
2017-07-02T06:39:32.271Z,1006.1
2017-07-02T06:40:34.719Z,1006.1
2017-07-02T06:41:36.779Z,1006.1
2017-07-02T06:42:38.850Z,1006.1
2017-07-02T06:43:41.253Z,1006.1
2017-07-02T06:44:44.016Z,1006
2017-07-02T06:45:46.115Z,1006.1
2017-07-02T06:46:48.153Z,1006.1
2017-07-02T06:47:50.237Z,1006.1
2017-07-02T06:48:52.363Z,1006.1
2017-07-02T06:49:54.427Z,1006.1
2017-07-02T06:50:56.511Z,1006.1
2017-07-02T06:51:58.572Z,1006.1
2017-07-02T06:53:00.651Z,1006.1
2017-07-02T06:54:02.726Z,1006.1
2017-07-02T06:55:04.791Z,1006
2017-07-02T06:56:06.905Z,1006.1
2017-07-02T06:57:08.968Z,1006.1
2017-07-02T06:58:11.017Z,1006
2017-07-02T06:59:13.096Z,1006.1
2017-07-02T07:00:15.180Z,1006.1
2017-07-02T07:01:17.593Z,1006.1
2017-07-02T07:02:20.022Z,1006.1
2017-07-02T07:03:22.419Z,1006.1
2017-07-02T07:04:24.498Z,1006.1
2017-07-02T07:05:26.545Z,1006.1
2017-07-02T07:06:28.614Z,1006.1
2017-07-02T07:07:30.694Z,1006.1
2017-07-02T07:08:32.764Z,1006
2017-07-02T07:09:35.172Z,1006.1
2017-07-02T07:10:37.254Z,1006.1
2017-07-02T07:11:39.346Z,1006.1
2017-07-02T07:12:41.410Z,1006.1
2017-07-02T07:13:43.483Z,1006.2
2017-07-02T07:14:45.902Z,1006.1
2017-07-02T07:15:47.978Z,1006.1
2017-07-02T07:16:50.046Z,1006.1
2017-07-02T07:17:52.123Z,1006.1
2017-07-02T07:18:54.190Z,1006.2
2017-07-02T07:19:56.609Z,1006.1
2017-07-02T07:20:59.029Z,1006.2
2017-07-02T07:22:01.112Z,1006.2
2017-07-02T07:23:03.180Z,1006.1
2017-07-02T07:24:05.584Z,1006.3
2017-07-02T07:25:07.657Z,1006.2
2017-07-02T07:26:10.102Z,1006.3
2017-07-02T07:29:14.354Z,1006.3
2017-07-02T07:30:16.433Z,1006.4
2017-07-02T07:31:18.851Z,1006.3
2017-07-02T07:32:20.935Z,1006.3
2017-07-02T07:33:23.010Z,1006.3
2017-07-02T07:34:25.086Z,1006.3
2017-07-02T07:35:27.493Z,1006.3
2017-07-02T07:36:29.568Z,1006.3
2017-07-02T07:37:31.654Z,1006.3
2017-07-02T07:38:33.731Z,1006.3
2017-07-02T07:39:35.804Z,1006.3
2017-07-02T07:40:37.882Z,1006.3
2017-07-02T07:41:39.959Z,1006.3
2017-07-02T07:42:42.040Z,1006.2
2017-07-02T07:43:44.106Z,1006.3
2017-07-02T07:44:46.522Z,1006.3
2017-07-02T07:45:48.609Z,1006.2
2017-07-02T07:46:50.678Z,1006.3
2017-07-02T07:47:52.755Z,1006.3
2017-07-02T07:48:54.833Z,1006.3
2017-07-02T07:49:56.935Z,1006.3
2017-07-02T07:50:59.344Z,1006.3
2017-07-02T07:52:01.428Z,1006.3
2017-07-02T07:53:03.504Z,1006.3
2017-07-02T07:54:05.587Z,1006.3
2017-07-02T07:55:07.659Z,1006.3
2017-07-02T07:56:09.765Z,1006.3
2017-07-02T07:57:11.848Z,1006.3
2017-07-02T07:58:13.925Z,1006.3
2017-07-02T07:59:16.368Z,1006.3
2017-07-02T08:00:18.456Z,1006.3
2017-07-02T08:01:20.866Z,1006.3
2017-07-02T08:02:22.953Z,1006.4
2017-07-02T08:03:25.041Z,1006.4
2017-07-02T08:04:27.156Z,1006.3
2017-07-02T08:05:29.230Z,1006.3
2017-07-02T08:06:31.314Z,1006.3
2017-07-02T08:07:33.395Z,1006.3
2017-07-02T08:08:35.469Z,1006.3
2017-07-02T08:09:37.537Z,1006.3
2017-07-02T08:10:39.615Z,1006.3
2017-07-02T08:11:41.691Z,1006.3
2017-07-02T08:12:43.770Z,1006.4
2017-07-02T08:13:45.870Z,1006.3
2017-07-02T08:14:47.964Z,1006.4
2017-07-02T08:15:50.024Z,1006.4
2017-07-02T08:16:52.100Z,1006.4
2017-07-02T08:17:54.181Z,1006.3
2017-07-02T08:18:56.272Z,1006.3
2017-07-02T08:19:58.706Z,1006.3
2017-07-02T08:21:01.115Z,1006.4
2017-07-02T08:22:03.201Z,1006.4
2017-07-02T08:23:05.280Z,1006.4
2017-07-02T08:24:07.371Z,1006.4
2017-07-02T08:25:09.465Z,1006.4
2017-07-02T08:26:11.545Z,1006.3
2017-07-02T08:27:13.621Z,1006.4
2017-07-02T08:28:15.690Z,1006.4
2017-07-02T08:29:17.763Z,1006.4
2017-07-02T08:30:19.859Z,1006.3
2017-07-02T08:31:21.930Z,1006.4
2017-07-02T08:32:23.991Z,1006.3
2017-07-02T08:33:26.088Z,1006.4
2017-07-02T08:34:28.521Z,1006.4
2017-07-02T08:35:30.607Z,1006.4
2017-07-02T08:36:32.705Z,1006.4
2017-07-02T08:37:34.790Z,1006.5
2017-07-02T08:38:37.198Z,1006.4
2017-07-02T08:39:39.271Z,1006.5
2017-07-02T08:40:41.347Z,1006.5
2017-07-02T08:41:43.773Z,1006.5
2017-07-02T08:42:45.855Z,1006.4
2017-07-02T08:43:47.937Z,1006.4
2017-07-02T08:44:50.356Z,1006.5
2017-07-02T08:45:52.823Z,1006.5
2017-07-02T08:46:54.903Z,1006.5
2017-07-02T08:47:57.318Z,1006.6
2017-07-02T08:48:59.414Z,1006.5
2017-07-02T08:50:01.507Z,1006.5
2017-07-02T08:51:04.263Z,1006.5
2017-07-02T08:52:06.333Z,1006.6
2017-07-02T08:53:08.416Z,1006.6
2017-07-02T08:54:10.501Z,1006.6
2017-07-02T08:55:12.575Z,1006.6
2017-07-02T08:56:14.643Z,1006.6
2017-07-02T08:57:16.734Z,1006.5
2017-07-02T08:58:18.831Z,1006.5
2017-07-02T08:59:20.906Z,1006.6
2017-07-02T09:00:23.312Z,1006.5
2017-07-02T09:01:25.638Z,1006.6
2017-07-02T09:02:29.790Z,1006.5
2017-07-02T09:03:31.856Z,1006.5
2017-07-02T09:04:33.928Z,1006.5
2017-07-02T09:05:36.013Z,1006.5
2017-07-02T09:06:38.082Z,1006.5
2017-07-02T09:07:40.163Z,1006.5
2017-07-02T09:08:42.260Z,1006.5
2017-07-02T09:09:44.364Z,1006.6
2017-07-02T09:10:46.482Z,1006.6
2017-07-02T09:11:48.579Z,1006.6
2017-07-02T09:12:50.646Z,1006.5
2017-07-02T09:13:52.751Z,1006.6
2017-07-02T09:14:54.831Z,1006.5
2017-07-02T09:15:56.915Z,1006.6
2017-07-02T09:16:58.997Z,1006.6
2017-07-02T09:18:01.063Z,1006.7
2017-07-02T09:19:03.139Z,1006.6
2017-07-02T09:20:05.212Z,1006.6
2017-07-02T09:21:07.286Z,1006.6
2017-07-02T09:22:09.359Z,1006.6
2017-07-02T09:23:11.457Z,1006.6
2017-07-02T09:24:13.545Z,1006.7
2017-07-02T09:25:15.621Z,1006.5
2017-07-02T09:26:18.041Z,1006.6
2017-07-02T09:27:20.137Z,1006.6
2017-07-02T09:28:22.221Z,1006.6
2017-07-02T09:29:24.285Z,1006.6
2017-07-02T09:30:26.372Z,1006.6
2017-07-02T09:31:28.456Z,1006.6
2017-07-02T09:32:30.539Z,1006.5
2017-07-02T09:33:32.624Z,1006.6
2017-07-02T09:34:34.688Z,1006.6
2017-07-02T09:35:36.755Z,1006.6
2017-07-02T09:36:38.844Z,1006.6
2017-07-02T09:37:40.912Z,1006.6
2017-07-02T09:38:42.989Z,1006.6
2017-07-02T09:39:45.065Z,1006.6
2017-07-02T09:40:47.155Z,1006.6
2017-07-02T09:41:49.275Z,1006.6
2017-07-02T09:42:51.361Z,1006.6
2017-07-02T09:43:53.785Z,1006.6
2017-07-02T09:44:55.877Z,1006.6
2017-07-02T09:45:58.326Z,1006.6
2017-07-02T09:47:00.402Z,1006.5
2017-07-02T09:48:02.471Z,1006.6
2017-07-02T09:49:04.559Z,1006.6
2017-07-02T09:50:07.001Z,1006.6
2017-07-02T09:51:09.454Z,1006.6
2017-07-02T09:52:11.574Z,1006.6
2017-07-02T09:53:13.995Z,1006.6
2017-07-02T09:54:16.079Z,1006.6
2017-07-02T09:55:18.156Z,1006.6
2017-07-02T09:56:20.237Z,1006.6
2017-07-02T09:57:22.309Z,1006.6
2017-07-02T09:58:24.423Z,1006.6
2017-07-02T09:59:26.550Z,1006.6
2017-07-02T10:00:28.611Z,1006.6
2017-07-02T10:01:30.682Z,1006.6
2017-07-02T10:02:32.743Z,1006.6
2017-07-02T10:03:49.834Z,1006.6
2017-07-02T10:04:51.835Z,1006.6
2017-07-02T10:05:53.844Z,1006.6
2017-07-02T10:06:55.854Z,1006.6
2017-07-02T10:07:57.860Z,1006.6
2017-07-02T10:08:59.856Z,1006.6
2017-07-02T10:10:01.879Z,1006.6
2017-07-02T10:11:03.879Z,1006.7
2017-07-02T10:12:05.886Z,1006.6
2017-07-02T10:13:08.607Z,1006.7
2017-07-02T10:14:10.623Z,1006.6
2017-07-02T10:15:12.630Z,1006.7
2017-07-02T10:16:14.634Z,1006.7
2017-07-02T10:17:16.651Z,1006.7
2017-07-02T10:18:18.662Z,1006.7
2017-07-02T10:19:20.656Z,1006.7
2017-07-02T10:20:22.671Z,1006.8
2017-07-02T10:21:24.741Z,1006.7
2017-07-02T10:22:26.745Z,1006.7
2017-07-02T10:23:28.745Z,1006.7
2017-07-02T10:24:31.423Z,1006.7
2017-07-02T10:25:33.436Z,1006.7
2017-07-02T10:26:35.442Z,1006.8
2017-07-02T10:27:37.453Z,1006.8
2017-07-02T10:28:39.455Z,1006.7
2017-07-02T10:29:41.458Z,1006.7
2017-07-02T10:30:43.475Z,1006.8
2017-07-02T10:31:45.481Z,1006.8
2017-07-02T10:32:47.489Z,1006.7
2017-07-02T10:33:49.851Z,1006.8
2017-07-02T10:34:51.858Z,1006.8
2017-07-02T10:35:54.212Z,1006.7
2017-07-02T10:36:56.226Z,1006.8
2017-07-02T10:37:58.234Z,1006.8
2017-07-02T10:39:00.250Z,1006.8
2017-07-02T10:40:02.593Z,1006.7
2017-07-02T10:41:04.602Z,1006.8
2017-07-02T10:42:06.945Z,1006.8
2017-07-02T10:43:08.954Z,1006.8
2017-07-02T10:44:10.953Z,1006.8
2017-07-02T10:45:12.978Z,1006.8
2017-07-02T10:46:14.978Z,1006.8
2017-07-02T10:47:16.987Z,1006.8
2017-07-02T10:48:18.990Z,1006.8
2017-07-02T10:49:20.996Z,1006.8
2017-07-02T10:50:23.063Z,1006.8
2017-07-02T10:51:25.072Z,1006.8
2017-07-02T10:52:27.408Z,1006.8
2017-07-02T10:53:29.418Z,1006.8
2017-07-02T10:54:31.420Z,1006.8
2017-07-02T10:55:33.432Z,1006.8
2017-07-02T10:56:35.443Z,1006.8
2017-07-02T10:57:37.449Z,1006.8
2017-07-02T10:58:39.466Z,1006.7
2017-07-02T10:59:41.460Z,1006.8
2017-07-02T11:00:43.470Z,1006.8
2017-07-02T11:01:45.489Z,1006.8
2017-07-02T11:02:47.490Z,1006.8
2017-07-02T11:03:49.494Z,1006.8
2017-07-02T11:04:51.502Z,1006.7
2017-07-02T11:05:53.857Z,1006.8
2017-07-02T11:06:55.863Z,1006.8
2017-07-02T11:07:57.880Z,1006.8
2017-07-02T11:08:59.918Z,1006.8
2017-07-02T11:10:01.918Z,1006.8
2017-07-02T11:11:03.936Z,1006.8
2017-07-02T11:12:05.941Z,1006.7
2017-07-02T11:13:08.289Z,1006.8
2017-07-02T11:14:10.298Z,1006.8
2017-07-02T11:15:12.305Z,1006.8
2017-07-02T11:16:14.309Z,1006.9
2017-07-02T11:17:16.314Z,1006.8
2017-07-02T11:18:18.666Z,1006.8
2017-07-02T11:19:20.677Z,1006.8
2017-07-02T11:20:22.681Z,1006.8
2017-07-02T11:21:24.693Z,1006.8
2017-07-02T11:22:26.701Z,1006.9
2017-07-02T11:23:28.708Z,1006.9
2017-07-02T11:24:30.709Z,1006.8
2017-07-02T11:25:33.061Z,1006.9
2017-07-02T11:26:35.079Z,1006.9
2017-07-02T11:27:37.078Z,1006.9
2017-07-02T11:28:39.088Z,1006.8
2017-07-02T11:29:41.097Z,1006.9
2017-07-02T11:30:43.102Z,1006.9
2017-07-02T11:31:45.106Z,1006.8
2017-07-02T11:32:47.116Z,1006.8
2017-07-02T11:33:49.134Z,1006.8
2017-07-02T11:34:51.137Z,1006.8
2017-07-02T11:35:53.477Z,1006.9
2017-07-02T11:36:55.834Z,1006.9
2017-07-02T11:37:57.839Z,1006.9
2017-07-02T11:38:59.851Z,1006.9
2017-07-02T11:40:01.857Z,1007
2017-07-02T11:41:03.875Z,1006.9
2017-07-02T11:42:05.893Z,1007
2017-07-02T11:43:07.901Z,1006.9
2017-07-02T11:44:09.897Z,1007
2017-07-02T11:45:11.904Z,1007
2017-07-02T11:46:13.921Z,1007
2017-07-02T11:47:15.944Z,1006.9
2017-07-02T11:48:17.952Z,1007
2017-07-02T11:49:19.967Z,1007
2017-07-02T11:50:21.988Z,1007
2017-07-02T11:51:23.972Z,1007
2017-07-02T11:52:25.979Z,1007
2017-07-02T11:53:27.995Z,1007
2017-07-02T11:54:29.997Z,1007.1
2017-07-02T11:55:32.337Z,1007
2017-07-02T11:56:34.389Z,1007
2017-07-02T11:57:36.393Z,1007
2017-07-02T11:58:38.410Z,1007.1
2017-07-02T11:59:40.759Z,1007.1
2017-07-02T12:00:42.773Z,1007.1
2017-07-02T12:01:44.780Z,1007.1
2017-07-02T12:02:46.787Z,1007.1
2017-07-02T12:03:48.820Z,1007.1
2017-07-02T12:04:50.835Z,1007
2017-07-02T12:05:52.858Z,1007.1
2017-07-02T12:06:54.863Z,1007.1
2017-07-02T12:07:56.872Z,1007.2
2017-07-02T12:08:58.883Z,1007.2
2017-07-02T12:10:00.890Z,1007.2
2017-07-02T12:11:03.242Z,1007.2
2017-07-02T12:12:05.248Z,1007.2
2017-07-02T12:13:07.280Z,1007.2
2017-07-02T12:14:09.613Z,1007.1
2017-07-02T12:15:11.656Z,1007.2
2017-07-02T12:16:14.009Z,1007.1
2017-07-02T12:17:16.014Z,1007.1
2017-07-02T12:18:18.384Z,1007.1
2017-07-02T12:19:20.384Z,1007.1
2017-07-02T12:20:22.729Z,1007.1
2017-07-02T12:21:24.735Z,1007.2
2017-07-02T12:22:26.744Z,1007
2017-07-02T12:23:28.750Z,1007
2017-07-02T12:24:31.102Z,1007.2
2017-07-02T12:25:33.111Z,1007.1
2017-07-02T12:26:35.463Z,1007.2
2017-07-02T12:27:37.471Z,1007.1
2017-07-02T12:28:39.487Z,1007.2
2017-07-02T12:29:41.522Z,1007.2
2017-07-02T12:30:43.536Z,1007.1
2017-07-02T12:31:45.537Z,1007.2
2017-07-02T12:32:47.553Z,1007.1
2017-07-02T12:33:49.561Z,1007.1
2017-07-02T12:34:51.955Z,1007
2017-07-02T12:35:53.967Z,1007.1
2017-07-02T12:36:55.980Z,1007.2
2017-07-02T12:37:57.999Z,1007.1
2017-07-02T12:38:59.995Z,1007.1
2017-07-02T12:40:02.009Z,1007
2017-07-02T12:41:04.029Z,1007.1
2017-07-02T12:42:06.035Z,1007.1
2017-07-02T12:43:08.052Z,1007.1
2017-07-02T12:44:10.065Z,1007.1
2017-07-02T12:45:12.068Z,1007.1
2017-07-02T12:46:14.089Z,1007.1
2017-07-02T12:47:16.095Z,1007.1
2017-07-02T12:48:18.112Z,1007.1
2017-07-02T12:49:20.138Z,1007.1
2017-07-02T12:50:22.481Z,1007.1
2017-07-02T12:51:24.497Z,1007.1
2017-07-02T12:52:26.513Z,1007.1
2017-07-02T12:53:28.521Z,1007.1
2017-07-02T12:54:30.539Z,1007.1
2017-07-02T12:55:32.885Z,1007.1
2017-07-02T12:56:34.892Z,1007.1
2017-07-02T12:57:36.913Z,1007.1
2017-07-02T12:58:38.925Z,1007
2017-07-02T12:59:40.936Z,1007
2017-07-02T13:00:42.963Z,1007
2017-07-02T13:01:44.978Z,1007.1
2017-07-02T13:02:47.018Z,1007